Pagina principale
METAR-TAF:

METAR-TAF

Aeroporti :

Piattaforma petrolifera

Euro, Paesi Bassi

latitudine: 51-59-52N, longitudine: 3-16-30E, altezza: 18 m

Osservazione

Il bollettino è stato emesso 28 minuti fa, alle 19:55 UTC
Vento 36 kt da sud-ovest
Temperature 9°C
Umidità 81%
Pressione 999 hPa
Visibilità 10 km o più

METAR: EHSA 161955Z AUTO 22036KT 9999 ///////// 09/06 Q0999 W06/H24

Ora: 21:23 (20:23 UTC)


TAF: mancante

Osservazioni e previsioni meteorologiche di più di 4000 aeroporti (messaggi METAR e TAF).

Le stazioni disponibili sono rappresentate dai dischi gialli e rossi sulla carta.

Puntare il mouse per vedere il nome della stazione.

Clicca sopra per visualizzare le osservazioni e previsioni meteorologiche.

Per cambiare la mappa : fare clic sui pulsanti verdi con una croce nera per ingrandire, il pulsante verde con un trattino per diminuire, o sulla freccia verde per le mappe adiacenti.


METAR-TAF: